VNC weather

Venice Municipal Airport
Venice, Florida, United States

Public forecast

Using degrees Fahrenheit for public forecast. Weather courtesy of forecast.io.

METAR (pilot weather report)

Retrieved 2019/07/19 11:35 UTC (0 seconds ago):

KVNC 191135Z AUTO 10006KT 10SM CLR 26/24 A3007 RMK AO2

TAF (pilot weather forecast)

Closest forecast is Sarasota Bradenton International Airport, 20.4 nm (37.7 km) NNW. Retrieved 2019/07/19 06:22 UTC (5 hours ago):

TAF KSRQ 190520Z 1906/2006 VRB03KT P6SM FEW250 FM191400 15006KT P6SM SCT030 BKN250 FM191800 26008KT P6SM VCTS SCT030CB BKN100 FM200000 VRB04KT P6SM FEW040 SCT100